Time;durP1;ratioP1;P1;durP2;ratioP2;P2;SDS_P1;SDS_P2;PMS_P1;PMS_P2;Temp;Humidity;BMP_temperature;BMP_pressure;BME280_temperature;BME280_humidity;BME280_pressure;Samples;Min_cycle;Max_cycle;Signal;HPM_P1;HPM_P2
2023/01/24 00:00:40;;;;;;;;;;;;;;;21.62;26.78;99342.34;5040843;28;777;-81
2023/01/24 00:03:05;;;;;;;;;;;;;;;21.45;26.82;99346.03;5040262;28;873;-81
2023/01/24 00:05:33;;;;;;;;;;;;;;;21.55;26.40;99348.03;5040980;28;817;-81
2023/01/24 00:07:59;;;;;;;;;;;;;;;21.23;27.00;99345.31;5039769;28;1206;-81
2023/01/24 00:10:25;;;;;;;;;;;;;;;21.10;27.06;99341.31;5040739;28;786;-82
2023/01/24 00:12:50;;;;;;;;;;;;;;;21.17;27.04;99344.91;5020383;28;921;-80
2023/01/24 00:15:17;;;;;;;;;;;;;;;21.45;26.75;99343.22;5020644;28;1040;-81
2023/01/24 00:17:42;;;;;;;;;;;;;;;21.52;26.42;99346.03;5020724;28;1886;-81
2023/01/24 00:20:08;;;;;;;;;;;;;;;21.56;26.43;99355.31;5024489;28;890;-81
2023/01/24 00:22:34;;;;;;;;;;;;;;;21.16;26.97;99348.16;5043999;28;913;-81
2023/01/24 00:24:59;;;;;;;;;;;;;;;21.11;26.76;99352.22;5059450;28;762;-81
2023/01/24 00:27:25;;;;;;;;;;;;;;;21.21;26.75;99356.25;5040467;28;903;-81
2023/01/24 00:29:50;;;;;;;;;;;;;;;21.52;26.48;99361.00;5039806;28;831;-82
2023/01/24 00:32:16;;;;;;;;;;;;;;;21.38;26.57;99360.25;5024264;28;852;-81
2023/01/24 00:34:41;;;;;;;;;;;;;;;21.49;26.29;99361.00;5039810;28;866;-81
2023/01/24 00:37:07;;;;;;;;;;;;;;;21.38;26.46;99343.25;5040189;28;1989;-81
2023/01/24 00:39:32;;;;;;;;;;;;;;;21.28;26.76;99354.19;5039489;28;1198;-81
2023/01/24 00:41:57;;;;;;;;;;;;;;;21.26;26.80;99353.78;5023995;28;1151;-81
2023/01/24 00:44:23;;;;;;;;;;;;;;;21.67;26.25;99356.06;5068789;28;1134;-81
2023/01/24 00:46:50;;;;;;;;;;;;;;;21.35;26.53;99344.06;5063513;28;847;-81
2023/01/24 00:49:16;;;;;;;;;;;;;;;21.40;26.42;99330.31;5079295;28;785;-81
2023/01/24 00:51:41;;;;;;;;;;;;;;;21.24;26.60;99330.75;5080579;28;828;-81
2023/01/24 00:54:07;;;;;;;;;;;;;;;20.87;27.18;99338.94;5079221;28;801;-81
2023/01/24 00:56:32;;;;;;;;;;;;;;;21.27;26.75;99341.25;5063709;28;1905;-81
2023/01/24 00:58:58;;;;;;;;;;;;;;;21.64;26.03;99339.88;5057950;28;1130;-81
2023/01/24 01:01:23;;;;;;;;;;;;;;;21.54;26.43;99340.75;5065066;28;1126;-81
2023/01/24 01:03:49;;;;;;;;;;;;;;;21.20;26.72;99337.66;5099149;28;1137;-81
2023/01/24 01:06:15;;;;;;;;;;;;;;;21.05;26.75;99332.03;5100387;28;857;-81
2023/01/24 01:08:41;;;;;;;;;;;;;;;21.36;26.19;99328.72;5098090;28;1071;-81
2023/01/24 01:11:06;;;;;;;;;;;;;;;21.46;26.05;99339.19;5067071;28;1207;-81
2023/01/24 01:13:32;;;;;;;;;;;;;;;21.55;26.25;99336.69;5041691;28;1165;-81
2023/01/24 01:16:04;;;;;;;;;;;;;;;21.42;26.27;99332.72;5044210;28;1170;-81
2023/01/24 01:18:30;;;;;;;;;;;;;;;21.29;26.38;99324.66;5057327;28;1902;-81
2023/01/24 01:20:55;;;;;;;;;;;;;;;21.42;26.21;99332.72;5043789;28;1278;-81
2023/01/24 01:23:21;;;;;;;;;;;;;;;21.13;26.50;99332.81;5058129;28;861;-81
2023/01/24 01:25:46;;;;;;;;;;;;;;;21.10;26.83;99330.81;5042860;28;732;-81
2023/01/24 01:28:11;;;;;;;;;;;;;;;21.17;27.03;99330.78;5041592;28;894;-81
2023/01/24 01:30:37;;;;;;;;;;;;;;;21.32;26.47;99323.88;5060146;28;772;-81
2023/01/24 01:33:03;;;;;;;;;;;;;;;21.11;26.46;99329.59;5042003;28;1288;-81
2023/01/24 01:35:28;;;;;;;;;;;;;;;21.18;26.90;99318.22;5059281;28;803;-81
2023/01/24 01:37:53;;;;;;;;;;;;;;;21.20;26.36;99329.97;5042144;28;1906;-81
2023/01/24 01:40:19;;;;;;;;;;;;;;;21.44;26.50;99324.63;5026090;28;1426;-81
2023/01/24 01:42:48;;;;;;;;;;;;;;;21.56;26.06;99332.66;5026181;28;1222;-81
2023/01/24 01:45:29;;;;;;;;;;;;;;;21.56;26.17;99327.00;5071855;28;1122;-81
2023/01/24 01:47:54;;;;;;;;;;;;;;;21.42;26.11;99318.56;5079876;28;1142;-81
2023/01/24 01:50:25;;;;;;;;;;;;;;;21.03;26.48;99330.81;5062917;28;1217;-81
2023/01/24 01:52:51;;;;;;;;;;;;;;;21.03;26.51;99322.31;5062590;28;813;-80
2023/01/24 01:55:17;;;;;;;;;;;;;;;21.17;26.47;99327.94;5082825;28;754;-80
2023/01/24 01:57:42;;;;;;;;;;;;;;;21.29;26.35;99321.81;5067702;28;1898;-81
2023/01/24 02:00:12;;;;;;;;;;;;;;;21.40;26.01;99321.00;5083771;28;1304;-81
2023/01/24 02:02:38;;;;;;;;;;;;;;;21.11;26.32;99335.25;5084183;28;686;-81
2023/01/24 02:05:05;;;;;;;;;;;;;;;21.12;26.55;99325.53;5084353;28;762;-81
2023/01/24 02:07:33;;;;;;;;;;;;;;;21.14;26.51;99331.59;5084649;28;1427;-81
2023/01/24 02:09:59;;;;;;;;;;;;;;;21.32;26.35;99329.53;5083259;28;865;-82
2023/01/24 02:12:26;;;;;;;;;;;;;;;21.51;26.13;99328.22;5084214;28;1240;-81
2023/01/24 02:17:37;;;;;;;;;;;;;;;21.11;26.28;99323.94;5026363;28;1957;-81
2023/01/24 02:20:06;;;;;;;;;;;;;;;20.91;26.61;99320.75;5058221;28;906;-81
2023/01/24 02:22:37;;;;;;;;;;;;;;;21.18;26.42;99326.72;5042711;28;886;-81
2023/01/24 02:25:08;;;;;;;;;;;;;;;21.38;26.21;99326.28;5041732;28;899;-81
2023/01/24 02:27:33;;;;;;;;;;;;;;;21.28;25.89;99325.06;5026554;28;1235;-81
2023/01/24 02:29:59;;;;;;;;;;;;;;;21.25;26.10;99318.22;5008575;28;1232;-81
2023/01/24 02:32:25;;;;;;;;;;;;;;;21.13;26.00;99315.81;5010232;28;1136;-81
2023/01/24 02:34:50;;;;;;;;;;;;;;;21.62;25.88;99325.34;5008636;28;1121;-81
2023/01/24 02:37:20;;;;;;;;;;;;;;;21.39;26.05;99325.03;5042301;28;1922;-81
2023/01/24 02:39:49;;;;;;;;;;;;;;;21.52;25.76;99329.84;4985410;28;1341;-80
2023/01/24 02:42:15;;;;;;;;;;;;;;;21.26;25.72;99331.16;5003244;28;1248;-81
2023/01/24 02:44:49;;;;;;;;;;;;;;;21.09;26.05;99326.38;5002460;28;1245;-81
2023/01/24 02:47:15;;;;;;;;;;;;;;;21.17;26.02;99332.81;5022480;28;1146;-81
2023/01/24 02:49:40;;;;;;;;;;;;;;;21.43;26.16;99323.81;5021403;28;1135;-81
2023/01/24 02:54:50;;;;;;;;;;;;;;;21.32;25.80;99318.22;5038071;28;1224;-81
2023/01/24 02:59:59;;;;;;;;;;;;;;;21.31;25.58;99313.75;5025450;28;1254;-81
2023/01/24 03:02:26;;;;;;;;;;;;;;;21.17;26.05;99307.31;5046052;28;1178;-81
2023/01/24 03:04:51;;;;;;;;;;;;;;;21.27;25.79;99312.94;5061691;28;756;-81
2023/01/24 03:07:17;;;;;;;;;;;;;;;21.38;25.56;99314.94;5062322;28;897;-81
2023/01/24 03:09:49;;;;;;;;;;;;;;;21.53;25.37;99317.28;5047183;28;1223;-82
2023/01/24 03:40:13;;;;;;;;;;;;;;;21.11;25.51;99317.47;5057288;28;1123;-81
2023/01/24 03:42:48;;;;;;;;;;;;;;;21.08;25.68;99316.25;5059742;28;842;-81
2023/01/24 03:45:25;;;;;;;;;;;;;;;20.96;25.81;99308.22;5044131;28;1163;-81
2023/01/24 03:47:55;;;;;;;;;;;;;;;21.45;25.19;99301.56;5044210;28;1144;-82
2023/01/24 03:53:07;;;;;;;;;;;;;;;21.33;25.33;99310.50;5059963;28;993;-81
2023/01/24 03:55:33;;;;;;;;;;;;;;;21.42;25.10;99310.06;5044247;28;1131;-81
2023/01/24 03:58:00;;;;;;;;;;;;;;;21.14;25.57;99313.78;5042786;28;1901;-81
2023/01/24 04:00:26;;;;;;;;;;;;;;;21.43;25.56;99317.34;5023831;28;1165;-81
2023/01/24 04:02:56;;;;;;;;;;;;;;;21.45;25.08;99309.22;5023496;28;1085;-81
2023/01/24 04:05:22;;;;;;;;;;;;;;;21.49;25.04;99324.19;5023353;28;1313;-81
2023/01/24 04:07:48;;;;;;;;;;;;;;;21.12;25.57;99322.69;5023953;28;1143;-81
2023/01/24 04:10:13;;;;;;;;;;;;;;;21.36;25.31;99317.41;5025797;28;1193;-81
2023/01/24 04:12:43;;;;;;;;;;;;;;;21.33;25.13;99325.47;5063600;28;1151;-82
2023/01/24 04:15:08;;;;;;;;;;;;;;;21.54;24.98;99323.75;5046241;28;1175;-81
2023/01/24 04:17:34;;;;;;;;;;;;;;;21.42;25.17;99321.41;5063385;28;1975;-81
2023/01/24 04:20:02;;;;;;;;;;;;;;;21.55;24.88;99322.53;5079089;28;811;-81
2023/01/24 04:22:28;;;;;;;;;;;;;;;21.19;25.11;99322.69;5063538;28;1138;-81
2023/01/24 04:24:56;;;;;;;;;;;;;;;21.24;25.21;99327.94;5062642;28;1277;-81
2023/01/24 04:27:24;;;;;;;;;;;;;;;21.15;25.30;99336.06;5063553;28;1336;-81
2023/01/24 04:30:01;;;;;;;;;;;;;;;21.99;24.20;99326.72;5062427;28;1190;-81
2023/01/24 04:32:30;;;;;;;;;;;;;;;21.72;24.38;99335.81;5063840;28;1206;-81
2023/01/24 04:35:03;;;;;;;;;;;;;;;21.17;25.35;99339.25;5062370;28;1079;-81
2023/01/24 04:37:46;;;;;;;;;;;;;;;21.10;25.19;99338.50;5055415;28;1981;-81
2023/01/24 04:40:15;;;;;;;;;;;;;;;21.66;24.64;99343.13;5080581;28;1293;-81
2023/01/24 04:42:40;;;;;;;;;;;;;;;21.47;24.78;99333.09;5080996;28;1180;-81
2023/01/24 04:45:06;;;;;;;;;;;;;;;21.47;24.85;99341.59;5022232;28;1283;-81
2023/01/24 04:47:32;;;;;;;;;;;;;;;21.21;25.15;99340.06;5039806;28;1120;-81
2023/01/24 04:49:58;;;;;;;;;;;;;;;21.19;25.01;99342.50;5038822;28;803;-81
2023/01/24 04:52:24;;;;;;;;;;;;;;;21.26;25.21;99347.31;5023579;28;1254;-81
2023/01/24 04:54:58;;;;;;;;;;;;;;;21.56;24.97;99349.66;5022797;28;1208;-81
2023/01/24 04:57:23;;;;;;;;;;;;;;;21.64;24.71;99356.88;5023331;28;1973;-80
2023/01/24 04:59:49;;;;;;;;;;;;;;;21.66;24.79;99354.47;5021976;28;1089;-81
2023/01/24 05:02:15;;;;;;;;;;;;;;;21.36;24.84;99349.34;5023358;28;1099;-81
2023/01/24 05:04:43;;;;;;;;;;;;;;;21.09;25.20;99360.34;5022202;28;1209;-81
2023/01/24 05:07:10;;;;;;;;;;;;;;;21.33;25.03;99359.44;5023085;28;1233;-81
2023/01/24 05:09:35;;;;;;;;;;;;;;;21.24;25.38;99361.91;5038439;28;1093;-81
2023/01/24 05:12:05;;;;;;;;;;;;;;;21.31;25.29;99361.91;5023642;28;1379;-81
2023/01/24 05:14:31;;;;;;;;;;;;;;;21.35;24.94;99363.88;5022258;28;1148;-81
2023/01/24 05:16:57;;;;;;;;;;;;;;;21.10;25.38;99355.47;5041233;28;1910;-82
2023/01/24 05:19:23;;;;;;;;;;;;;;;21.36;25.02;99362.69;5078184;28;1292;-82
2023/01/24 05:21:48;;;;;;;;;;;;;;;21.16;25.21;99351.00;5062929;28;1356;-82
2023/01/24 05:24:14;;;;;;;;;;;;;;;21.41;24.83;99353.78;5062128;28;1158;-82
2023/01/24 05:26:40;;;;;;;;;;;;;;;21.45;24.84;99361.03;5079673;28;1374;-82
2023/01/24 05:29:07;;;;;;;;;;;;;;;21.54;24.59;99361.38;5044345;28;1332;-81
2023/01/24 05:31:32;;;;;;;;;;;;;;;21.24;25.05;99367.56;5062285;28;1365;-82
2023/01/24 05:33:59;;;;;;;;;;;;;;;21.03;25.05;99361.94;5044699;28;1206;-82
2023/01/24 05:36:25;;;;;;;;;;;;;;;21.11;25.09;99362.75;5078738;28;1307;-81
2023/01/24 05:38:51;;;;;;;;;;;;;;;21.67;24.28;99358.91;5060745;28;1984;-82
2023/01/24 05:41:18;;;;;;;;;;;;;;;21.33;24.91;99367.94;5079659;28;1311;-82
2023/01/24 05:43:44;;;;;;;;;;;;;;;21.44;24.62;99375.59;5060267;28;1441;-81
2023/01/24 05:46:11;;;;;;;;;;;;;;;21.50;24.62;99377.59;5062174;28;1291;-81
2023/01/24 05:48:42;;;;;;;;;;;;;;;21.23;24.78;99377.25;5044599;28;1336;-81
2023/01/24 05:51:09;;;;;;;;;;;;;;;21.69;24.30;99387.59;5064088;28;1269;-82
2023/01/24 05:53:35;;;;;;;;;;;;;;;21.37;24.66;99381.28;5078215;28;778;-81
2023/01/24 05:56:02;;;;;;;;;;;;;;;21.31;24.95;99378.88;5079110;28;1288;-81
2023/01/24 05:58:28;;;;;;;;;;;;;;;21.31;24.75;99387.38;5060608;28;1922;-81
2023/01/24 06:01:12;;;;;;;;;;;;;;;21.08;24.98;99392.66;5062596;28;1268;-81
2023/01/24 06:03:42;;;;;;;;;;;;;;;21.11;24.89;99386.19;5060734;28;1566;-81
2023/01/24 06:06:08;;;;;;;;;;;;;;;21.46;24.66;99393.00;5063351;28;1123;-81
2023/01/24 06:08:34;;;;;;;;;;;;;;;21.56;24.31;99394.97;5059823;28;1256;-81
2023/01/24 06:11:01;;;;;;;;;;;;;;;21.47;24.63;99391.78;5022582;28;1273;-82
2023/01/24 06:13:27;;;;;;;;;;;;;;;21.24;24.88;99386.53;5021241;28;1235;-81
2023/01/24 06:15:52;;;;;;;;;;;;;;;21.13;24.89;99388.59;5006025;28;1302;-81
2023/01/24 06:18:18;;;;;;;;;;;;;;;21.49;24.71;99395.78;5034399;28;1989;-82
2023/01/24 06:20:45;;;;;;;;;;;;;;;21.56;24.14;99394.97;5002888;28;1312;-82
2023/01/24 06:23:15;;;;;;;;;;;;;;;21.35;24.47;99390.19;5017602;28;1123;-81
2023/01/24 06:25:44;;;;;;;;;;;;;;;21.20;24.80;99383.75;4999000;28;1125;-82
2023/01/24 06:28:11;;;;;;;;;;;;;;;20.99;24.96;99389.47;4981714;28;965;-81
2023/01/24 06:30:37;;;;;;;;;;;;;;;21.18;24.84;99397.47;4998844;28;822;-81
2023/01/24 06:33:09;;;;;;;;;;;;;;;21.31;24.61;99397.91;4981909;28;748;-81
2023/01/24 06:35:49;;;;;;;;;;;;;;;21.40;24.67;99392.63;4999161;28;875;-81
2023/01/24 06:38:19;;;;;;;;;;;;;;;21.25;24.52;99413.66;4997694;28;1979;-82
2023/01/24 06:40:45;;;;;;;;;;;;;;;21.39;24.26;99407.16;4968033;28;750;-82
2023/01/24 06:43:10;;;;;;;;;;;;;;;21.15;24.80;99406.81;5040560;28;929;-82
2023/01/24 06:45:36;;;;;;;;;;;;;;;21.55;24.34;99418.81;5041815;28;846;-82
2023/01/24 06:48:01;;;;;;;;;;;;;;;21.45;24.20;99416.84;5040837;28;790;-82
2023/01/24 06:50:31;;;;;;;;;;;;;;;21.71;23.98;99419.19;5041271;28;774;-82
2023/01/24 06:52:56;;;;;;;;;;;;;;;21.25;24.70;99413.66;5041523;28;905;-82
2023/01/24 06:55:22;;;;;;;;;;;;;;;21.16;24.48;99411.25;5025076;28;774;-81
2023/01/24 06:57:53;;;;;;;;;;;;;;;21.39;24.37;99424.16;5060805;28;1909;-82
2023/01/24 07:00:18;;;;;;;;;;;;;;;21.50;24.05;99419.25;5078731;28;747;-82
2023/01/24 07:02:44;;;;;;;;;;;;;;;21.39;24.33;99418.47;5081020;28;883;-81
2023/01/24 07:05:09;;;;;;;;;;;;;;;21.30;24.32;99418.94;5080818;28;855;-82
2023/01/24 07:07:35;;;;;;;;;;;;;;;21.28;24.27;99424.16;5081792;28;1201;-82
2023/01/24 07:10:00;;;;;;;;;;;;;;;21.33;24.25;99421.72;5063924;28;728;-82
2023/01/24 07:12:26;;;;;;;;;;;;;;;21.55;23.88;99424.50;5064956;28;1145;-82
2023/01/24 07:14:51;;;;;;;;;;;;;;;21.45;24.13;99422.50;5080807;28;853;-81
2023/01/24 07:17:17;;;;;;;;;;;;;;;21.39;24.42;99424.16;5080719;28;1902;-82
2023/01/24 07:19:42;;;;;;;;;;;;;;;21.24;24.55;99424.19;5080436;28;850;-82
2023/01/24 07:22:11;;;;;;;;;;;;;;;21.05;24.47;99421.78;5081338;28;1144;-79
2023/01/24 07:24:37;;;;;;;;;;;;;;;21.29;24.39;99423.72;5040548;28;1194;-80
2023/01/24 07:27:02;;;;;;;;;;;;;;;21.42;24.29;99424.16;5024725;28;1139;-81
2023/01/24 07:29:28;;;;;;;;;;;;;;;21.38;24.15;99422.53;5023129;28;924;-81
2023/01/24 07:31:53;;;;;;;;;;;;;;;21.08;24.63;99420.97;5041303;28;838;-81
2023/01/24 07:34:19;;;;;;;;;;;;;;;21.43;24.20;99416.44;5010242;28;1170;-81
2023/01/24 07:36:45;;;;;;;;;;;;;;;21.14;24.72;99429.84;4985119;28;1914;-81
2023/01/24 07:39:10;;;;;;;;;;;;;;;21.55;24.15;99428.16;5000886;28;892;-80
2023/01/24 07:41:36;;;;;;;;;;;;;;;21.40;24.33;99425.75;5001268;28;864;-81
2023/01/24 07:44:04;;;;;;;;;;;;;;;21.47;23.97;99425.75;5000467;28;767;-81
2023/01/24 07:46:30;;;;;;;;;;;;;;;21.51;24.03;99429.38;5001739;28;1302;-81
2023/01/24 07:48:56;;;;;;;;;;;;;;;21.19;24.42;99433.09;5000170;28;923;-81
2023/01/24 07:51:21;;;;;;;;;;;;;;;21.31;24.28;99435.50;5001324;28;935;-81
2023/01/24 07:53:47;;;;;;;;;;;;;;;21.33;24.14;99427.41;4998998;28;773;-81
2023/01/24 07:56:15;;;;;;;;;;;;;;;21.42;24.19;99434.66;4985439;28;860;-81
2023/01/24 07:58:40;;;;;;;;;;;;;;;21.41;24.09;99427.41;5002439;28;1906;-81
2023/01/24 08:01:06;;;;;;;;;;;;;;;21.36;24.30;99431.44;5028859;28;810;-81
2023/01/24 08:03:31;;;;;;;;;;;;;;;21.50;23.99;99430.56;5062073;28;754;-81
2023/01/24 08:05:57;;;;;;;;;;;;;;;21.33;24.15;99420.94;5081021;28;849;-81
2023/01/24 08:08:22;;;;;;;;;;;;;;;21.65;23.80;99432.13;5078901;28;1321;-81
2023/01/24 08:10:48;;;;;;;;;;;;;;;21.39;23.95;99424.16;5081205;28;837;-81
2023/01/24 08:13:13;;;;;;;;;;;;;;;21.26;24.18;99426.59;5079567;28;802;-80
2023/01/24 08:15:38;;;;;;;;;;;;;;;21.15;24.66;99432.28;5080672;28;901;-81
2023/01/24 08:18:04;;;;;;;;;;;;;;;21.29;24.25;99426.56;5079293;28;1906;-81
2023/01/24 08:20:29;;;;;;;;;;;;;;;21.44;23.94;99429.38;5060945;28;1114;-81
2023/01/24 08:22:58;;;;;;;;;;;;;;;21.77;23.70;99433.72;5077329;28;834;-82
2023/01/24 08:25:24;;;;;;;;;;;;;;;21.50;23.83;99431.41;5077783;28;968;-81
2023/01/24 08:27:50;;;;;;;;;;;;;;;21.11;24.48;99420.16;5061323;28;846;-82
2023/01/24 08:30:15;;;;;;;;;;;;;;;21.04;24.74;99431.50;5060285;28;802;-81
2023/01/24 08:32:41;;;;;;;;;;;;;;;21.40;24.06;99425.75;5077627;28;930;-81
2023/01/24 08:35:07;;;;;;;;;;;;;;;21.60;24.08;99424.06;5076653;28;818;-82
2023/01/24 08:37:32;;;;;;;;;;;;;;;21.16;24.23;99430.25;5061700;28;1879;-81
2023/01/24 08:39:57;;;;;;;;;;;;;;;21.04;24.74;99420.97;5076747;28;1149;-81
2023/01/24 08:42:23;;;;;;;;;;;;;;;21.25;24.16;99420.13;5079515;28;904;-81
2023/01/24 08:44:49;;;;;;;;;;;;;;;21.28;24.26;99424.16;5061959;28;1314;-81
2023/01/24 08:47:14;;;;;;;;;;;;;;;21.36;24.29;99431.44;5079891;28;958;-81
2023/01/24 08:49:40;;;;;;;;;;;;;;;21.59;23.95;99433.78;5077767;28;1004;-81
2023/01/24 08:52:05;;;;;;;;;;;;;;;21.29;24.08;99432.22;5062806;28;1115;-81
2023/01/24 08:54:35;;;;;;;;;;;;;;;20.86;24.81;99430.69;5078146;28;849;-81
2023/01/24 08:57:01;;;;;;;;;;;;;;;20.92;24.65;99437.56;5079565;28;1951;-81
2023/01/24 08:59:26;;;;;;;;;;;;;;;21.10;24.50;99423.41;5077669;28;763;-81
2023/01/24 09:01:52;;;;;;;;;;;;;;;21.13;24.74;99423.38;5085812;28;1249;-81
2023/01/24 09:04:17;;;;;;;;;;;;;;;21.64;23.93;99424.88;5081464;28;1229;-81
2023/01/24 09:06:43;;;;;;;;;;;;;;;21.36;24.17;99422.94;5065448;28;1074;-81
2023/01/24 09:09:08;;;;;;;;;;;;;;;20.75;25.23;99423.03;5098056;28;1220;-81
2023/01/24 09:11:34;;;;;;;;;;;;;;;20.89;24.93;99413.72;5094941;28;1232;-81
2023/01/24 09:13:59;;;;;;;;;;;;;;;21.28;24.32;99419.28;5082214;28;999;-83
2023/01/24 09:16:27;;;;;;;;;;;;;;;21.80;23.73;99427.22;5079263;28;1260;-82
2023/01/24 09:18:53;;;;;;;;;;;;;;;21.33;24.50;99410.41;5077300;28;1981;-82
2023/01/24 09:21:19;;;;;;;;;;;;;;;21.17;24.51;99407.19;5076511;28;1196;-80
2023/01/24 09:23:44;;;;;;;;;;;;;;;20.92;24.78;99395.13;5058985;28;801;-81
2023/01/24 09:26:10;;;;;;;;;;;;;;;21.13;24.62;99392.25;5076635;28;873;-80
2023/01/24 09:28:35;;;;;;;;;;;;;;;21.22;24.58;99398.28;5075855;28;818;-80
2023/01/24 09:31:01;;;;;;;;;;;;;;;21.34;24.57;99397.06;5076133;28;1296;-80
2023/01/24 09:33:26;;;;;;;;;;;;;;;21.45;24.34;99385.69;5058677;28;782;-80
2023/01/24 09:35:53;;;;;;;;;;;;;;;21.30;24.66;99385.75;5056981;28;1241;-80
2023/01/24 09:38:18;;;;;;;;;;;;;;;21.23;24.62;99382.09;5038456;28;1973;-80
2023/01/24 09:40:50;;;;;;;;;;;;;;;21.27;24.52;99389.38;5039898;28;1354;-80
2023/01/24 09:43:22;;;;;;;;;;;;;;;21.43;24.12;99390.97;5071894;28;1288;-81
2023/01/24 09:45:52;;;;;;;;;;;;;;;21.56;24.13;99387.28;5076513;28;1272;-80
2023/01/24 09:48:17;;;;;;;;;;;;;;;21.28;24.57;99385.31;5058875;28;1173;-81
2023/01/24 09:50:45;;;;;;;;;;;;;;;21.07;24.73;99382.56;5059851;28;1312;-80
2023/01/24 09:53:18;;;;;;;;;;;;;;;21.02;25.04;99380.94;5075992;28;1241;-81
2023/01/24 09:55:43;;;;;;;;;;;;;;;21.54;24.21;99374.72;5059872;28;1268;-80
2023/01/24 09:58:26;;;;;;;;;;;;;;;21.31;24.52;99367.56;5076028;28;1921;-80
2023/01/24 10:00:52;;;;;;;;;;;;;;;21.18;24.54;99363.50;5076018;28;883;-80
2023/01/24 10:03:18;;;;;;;;;;;;;;;21.27;24.54;99363.09;5058366;28;1410;-80
2023/01/24 10:05:46;;;;;;;;;;;;;;;21.16;24.55;99354.63;5076415;28;788;-80
2023/01/24 10:08:14;;;;;;;;;;;;;;;21.32;24.44;99368.38;5075166;28;1248;-80
2023/01/24 10:10:42;;;;;;;;;;;;;;;21.31;24.55;99356.22;5076318;28;869;-80
2023/01/24 10:13:22;;;;;;;;;;;;;;;21.52;24.16;99352.50;5076360;28;865;-80
2023/01/24 10:15:48;;;;;;;;;;;;;;;21.15;24.67;99355.84;5061551;28;841;-80
2023/01/24 10:18:34;;;;;;;;;;;;;;;21.30;24.57;99357.47;5081353;28;1993;-80
2023/01/24 10:21:17;;;;;;;;;;;;;;;21.27;24.50;99352.56;5023613;28;948;-81
2023/01/24 10:23:43;;;;;;;;;;;;;;;21.53;24.18;99337.13;5038931;28;880;-80
2023/01/24 10:26:14;;;;;;;;;;;;;;;21.53;24.25;99333.47;5006804;28;1217;-80
2023/01/24 10:28:40;;;;;;;;;;;;;;;21.33;24.35;99339.63;5038973;28;779;-80
2023/01/24 10:31:11;;;;;;;;;;;;;;;21.11;24.88;99335.25;5007935;28;1120;-80
2023/01/24 10:33:39;;;;;;;;;;;;;;;21.04;24.75;99336.09;5022120;28;1103;-80
2023/01/24 10:36:17;;;;;;;;;;;;;;;21.44;24.33;99327.44;5023574;28;807;-80
2023/01/24 10:38:43;;;;;;;;;;;;;;;21.39;24.30;99328.69;5022120;28;1918;-80
2023/01/24 10:41:14;;;;;;;;;;;;;;;21.20;24.40;99320.66;5007300;28;771;-81
2023/01/24 10:43:40;;;;;;;;;;;;;;;21.30;24.33;99320.66;5038434;28;987;-80
2023/01/24 10:46:12;;;;;;;;;;;;;;;21.11;24.54;99317.47;5007175;28;1250;-80
2023/01/24 10:48:49;;;;;;;;;;;;;;;21.40;24.62;99312.50;4998880;28;878;-80
2023/01/24 10:51:18;;;;;;;;;;;;;;;21.34;24.52;99314.94;4983813;28;1334;-80
2023/01/24 10:53:43;;;;;;;;;;;;;;;21.25;24.48;99317.41;4980045;28;820;-81
2023/01/24 10:56:09;;;;;;;;;;;;;;;21.38;24.53;99309.28;4980690;28;894;-80
2023/01/24 10:58:41;;;;;;;;;;;;;;;21.04;25.02;99312.66;4960905;28;1978;-80
2023/01/24 11:01:06;;;;;;;;;;;;;;;21.61;24.36;99309.56;5017892;28;1337;-80
2023/01/24 11:03:35;;;;;;;;;;;;;;;21.31;24.23;99265.63;5019017;28;948;-80
2023/01/24 11:06:00;;;;;;;;;;;;;;;21.50;24.25;99300.31;5019208;28;1245;-81
2023/01/24 11:08:31;;;;;;;;;;;;;;;21.28;24.50;99314.53;4965908;28;1082;-80
2023/01/24 11:11:00;;;;;;;;;;;;;;;21.32;24.56;99312.53;5002557;28;1257;-80
2023/01/24 11:13:25;;;;;;;;;;;;;;;21.08;24.85;99314.22;4982832;28;1234;-80
2023/01/24 11:15:51;;;;;;;;;;;;;;;21.48;24.54;99308.41;5016101;28;937;-80
2023/01/24 11:18:19;;;;;;;;;;;;;;;21.24;24.44;99305.28;4982342;28;1914;-81
2023/01/24 11:20:45;;;;;;;;;;;;;;;21.37;24.28;99307.69;4983097;28;902;-80
2023/01/24 11:23:17;;;;;;;;;;;;;;;21.13;24.45;99310.16;4998816;28;771;-80
2023/01/24 11:26:01;;;;;;;;;;;;;;;21.00;25.10;99307.00;5015022;28;1255;-81
2023/01/24 11:28:27;;;;;;;;;;;;;;;21.35;24.74;99305.25;4998521;28;909;-80
2023/01/24 11:30:54;;;;;;;;;;;;;;;21.27;24.36;99297.97;5015021;28;890;-80
2023/01/24 11:33:23;;;;;;;;;;;;;;;21.32;24.22;99304.03;5030201;28;866;-80
2023/01/24 11:35:52;;;;;;;;;;;;;;;21.46;24.20;99294.69;5038224;28;823;-81
2023/01/24 11:38:36;;;;;;;;;;;;;;;21.49;24.00;99293.84;5020857;28;1969;-80
2023/01/24 11:41:04;;;;;;;;;;;;;;;21.17;24.58;99288.31;5026742;28;904;-80
2023/01/24 11:43:34;;;;;;;;;;;;;;;21.18;24.45;99291.94;5077159;28;731;-80
2023/01/24 11:46:05;;;;;;;;;;;;;;;21.21;24.37;99289.13;5077954;28;891;-80
2023/01/24 11:48:43;;;;;;;;;;;;;;;21.48;24.11;99292.22;5077165;28;825;-80
2023/01/24 11:51:28;;;;;;;;;;;;;;;21.25;24.39;99300.44;5078180;28;782;-80
2023/01/24 11:53:57;;;;;;;;;;;;;;;21.14;24.49;99289.16;5057189;28;1043;-80
2023/01/24 11:56:29;;;;;;;;;;;;;;;21.17;24.32;99288.31;5042954;28;920;-80
2023/01/24 11:59:00;;;;;;;;;;;;;;;21.05;24.83;99291.63;5017192;28;1992;-80
2023/01/24 12:01:40;;;;;;;;;;;;;;;21.21;24.59;99294.78;5017991;28;868;-80
2023/01/24 12:04:25;;;;;;;;;;;;;;;21.63;23.66;99292.16;5017523;28;1659;-80
2023/01/24 12:06:50;;;;;;;;;;;;;;;21.30;24.26;99292.34;5018078;28;802;-80
2023/01/24 12:09:21;;;;;;;;;;;;;;;21.06;24.46;99285.53;5017503;28;1196;-80
2023/01/24 12:11:48;;;;;;;;;;;;;;;21.10;24.57;99282.69;5017223;28;1075;-80
2023/01/24 12:14:28;;;;;;;;;;;;;;;21.48;23.92;99286.56;5033836;28;749;-80
2023/01/24 12:16:59;;;;;;;;;;;;;;;21.41;24.12;99280.16;5034061;28;2022;-80
2023/01/24 12:19:25;;;;;;;;;;;;;;;21.41;23.91;99291.47;5033484;28;1262;-80
2023/01/24 12:21:57;;;;;;;;;;;;;;;21.23;24.08;99292.31;5017677;28;1317;-80
2023/01/24 12:24:31;;;;;;;;;;;;;;;21.32;24.00;99295.56;5000792;28;1146;-80
2023/01/24 12:27:06;;;;;;;;;;;;;;;21.22;24.12;99287.88;5017577;28;875;-80
2023/01/24 12:29:38;;;;;;;;;;;;;;;21.29;24.08;99279.34;5016937;28;763;-79
2023/01/24 12:32:36;;;;;;;;;;;;;;;21.51;23.66;99276.47;5036236;28;1161;-80
2023/01/24 12:35:04;;;;;;;;;;;;;;;21.07;24.29;99277.84;5036704;28;1333;-80
2023/01/24 12:37:33;;;;;;;;;;;;;;;21.39;23.86;99282.56;5020441;28;1902;-80
2023/01/24 12:40:13;;;;;;;;;;;;;;;21.26;24.06;99291.50;5035845;28;1289;-80
2023/01/24 12:42:48;;;;;;;;;;;;;;;21.47;23.85;99278.50;5036739;28;786;-80
2023/01/24 12:45:18;;;;;;;;;;;;;;;21.46;23.76;99288.22;5020325;28;910;-80
2023/01/24 12:47:48;;;;;;;;;;;;;;;21.00;24.41;99289.22;5020190;28;1096;-80
2023/01/24 12:50:15;;;;;;;;;;;;;;;20.95;24.55;99287.59;5019900;28;1012;-80
2023/01/24 12:52:49;;;;;;;;;;;;;;;20.85;24.50;99296.13;5020703;28;1194;-80
2023/01/24 12:55:24;;;;;;;;;;;;;;;21.60;23.68;99293.78;5036577;28;797;-80
2023/01/24 12:57:50;;;;;;;;;;;;;;;21.59;23.97;99298.63;5036073;28;1905;-80
2023/01/24 13:00:19;;;;;;;;;;;;;;;21.44;24.14;99291.44;5036414;28;762;-80
2023/01/24 13:02:47;;;;;;;;;;;;;;;21.29;23.97;99293.50;5020412;28;801;-80
2023/01/24 13:05:19;;;;;;;;;;;;;;;21.32;24.14;99289.88;5019602;28;1039;-80
2023/01/24 13:07:47;;;;;;;;;;;;;;;21.44;24.14;99296.31;5036558;28;1061;-80
2023/01/24 13:10:39;;;;;;;;;;;;;;;21.25;24.03;99289.91;5050637;28;920;-80
2023/01/24 13:13:05;;;;;;;;;;;;;;;21.40;23.86;99295.50;5076022;28;904;-80
2023/01/24 13:15:37;;;;;;;;;;;;;;;21.11;24.12;99289.97;5060304;28;809;-80
2023/01/24 13:18:06;;;;;;;;;;;;;;;21.14;24.28;99294.81;5076921;28;1979;-80
2023/01/24 13:20:51;;;;;;;;;;;;;;;20.97;24.59;99293.66;5077148;28;793;-80
2023/01/24 13:23:26;;;;;;;;;;;;;;;21.73;23.58;99300.59;5078002;28;813;-80
2023/01/24 13:26:01;;;;;;;;;;;;;;;21.61;23.80;99294.59;5078010;28;825;-80
2023/01/24 13:28:39;;;;;;;;;;;;;;;21.30;23.96;99295.16;5077511;28;723;-80
2023/01/24 13:31:29;;;;;;;;;;;;;;;21.17;24.19;99293.97;5077381;28;746;-80
2023/01/24 13:33:59;;;;;;;;;;;;;;;20.93;24.57;99298.50;5003087;28;1134;-80
2023/01/24 13:36:34;;;;;;;;;;;;;;;21.75;23.35;99289.63;5020721;28;940;-80
2023/01/24 13:39:00;;;;;;;;;;;;;;;21.54;23.65;99303.94;5035506;28;1898;-80
2023/01/24 13:41:25;;;;;;;;;;;;;;;21.30;23.78;99303.66;5027550;28;1332;-80
2023/01/24 13:43:54;;;;;;;;;;;;;;;21.07;24.40;99300.50;5060380;28;1444;-80